createdAt,value
2023-05-21T00:00:29.082Z,54.95
2023-05-21T00:01:29.067Z,50.92
2023-05-21T00:02:29.143Z,52.21
2023-05-21T00:03:29.124Z,51.88
2023-05-21T00:04:29.070Z,50.27
2023-05-21T00:05:29.057Z,52.05
2023-05-21T00:06:29.127Z,49.79
2023-05-21T00:07:29.062Z,49.95
2023-05-21T00:08:29.024Z,51.08
2023-05-21T00:09:29.027Z,51.72
2023-05-21T00:10:29.058Z,51.72
2023-05-21T00:11:28.990Z,54.30
2023-05-21T00:12:29.015Z,52.21
2023-05-21T00:13:28.997Z,53.50
2023-05-21T00:14:28.973Z,51.24
2023-05-21T00:15:28.975Z,52.21
2023-05-21T00:16:29.058Z,50.11
2023-05-21T00:17:28.989Z,50.27
2023-05-21T00:18:28.957Z,51.24
2023-05-21T00:19:29.006Z,50.60
2023-05-21T00:20:28.934Z,49.95
2023-05-21T00:21:28.933Z,50.60
2023-05-21T00:22:28.924Z,50.76
2023-05-21T00:23:28.921Z,51.56
2023-05-21T00:24:28.901Z,51.88
2023-05-21T00:25:28.904Z,51.56
2023-05-21T00:26:28.914Z,51.88
2023-05-21T00:27:28.905Z,52.37
2023-05-21T00:28:28.880Z,51.08
2023-05-21T00:29:28.872Z,55.75
2023-05-21T00:30:28.886Z,50.60
2023-05-21T00:31:28.907Z,53.50
2023-05-21T00:32:28.878Z,51.56
2023-05-21T00:33:28.839Z,50.11
2023-05-21T00:34:28.833Z,53.17
2023-05-21T00:35:28.833Z,53.01
2023-05-21T00:36:28.848Z,50.76
2023-05-21T00:37:28.819Z,51.56
2023-05-21T00:38:28.815Z,50.92
2023-05-21T00:39:28.805Z,50.60
2023-05-21T00:40:28.810Z,49.47
2023-05-21T00:41:28.802Z,49.63
2023-05-21T00:42:28.790Z,50.76
2023-05-21T00:43:28.800Z,50.43
2023-05-21T00:44:28.764Z,51.72
2023-05-21T00:45:28.776Z,50.60
2023-05-21T00:46:28.799Z,51.88
2023-05-21T00:48:28.749Z,50.27
2023-05-21T00:49:28.732Z,51.08
2023-05-21T00:50:28.735Z,49.95
2023-05-21T00:51:28.726Z,51.56
2023-05-21T00:52:28.711Z,51.56
2023-05-21T00:53:28.702Z,52.37
2023-05-21T00:54:28.725Z,50.11
2023-05-21T00:55:28.696Z,50.60
2023-05-21T00:56:28.694Z,51.24
2023-05-21T00:57:28.687Z,51.72
2023-05-21T00:58:28.670Z,50.60
2023-05-21T00:59:28.667Z,53.50
2023-05-21T01:00:28.655Z,53.98
2023-05-21T01:01:28.743Z,50.27
2023-05-21T01:02:28.740Z,50.92
2023-05-21T01:03:28.747Z,52.69
2023-05-21T01:04:28.638Z,54.95
2023-05-21T01:05:28.637Z,53.66
2023-05-21T01:06:28.610Z,51.88
2023-05-21T01:07:28.647Z,50.43
2023-05-21T01:08:28.610Z,50.27
2023-05-21T01:09:28.611Z,49.79
2023-05-21T01:10:28.612Z,51.56
2023-05-21T01:11:28.588Z,49.79
2023-05-21T01:12:28.575Z,49.47
2023-05-21T01:13:28.579Z,49.79
2023-05-21T01:14:28.571Z,49.63
2023-05-21T01:15:28.566Z,52.85
2023-05-21T01:16:28.566Z,49.63
2023-05-21T01:17:28.587Z,49.47
2023-05-21T01:18:28.568Z,49.79
2023-05-21T01:19:28.557Z,50.27
2023-05-21T01:20:28.574Z,50.43
2023-05-21T01:21:28.517Z,50.43
2023-05-21T01:22:28.543Z,50.43
2023-05-21T01:23:28.502Z,50.11
2023-05-21T01:24:28.497Z,50.11
2023-05-21T01:25:28.509Z,51.72
2023-05-21T01:26:28.497Z,49.63
2023-05-21T01:27:28.490Z,54.14
2023-05-21T01:28:28.480Z,51.72
2023-05-21T01:29:28.474Z,51.08
2023-05-21T01:30:28.465Z,50.60
2023-05-21T01:31:28.498Z,50.60
2023-05-21T01:32:28.473Z,49.95
2023-05-21T01:33:28.518Z,51.40
2023-05-21T01:34:28.427Z,49.47
2023-05-21T01:35:28.436Z,52.21
2023-05-21T01:36:28.443Z,50.92
2023-05-21T01:37:28.427Z,49.95
2023-05-21T01:38:28.415Z,50.11
2023-05-21T01:39:28.410Z,49.47
2023-05-21T01:40:28.400Z,50.60
2023-05-21T01:41:28.436Z,50.60
2023-05-21T01:42:28.389Z,52.69
2023-05-21T01:43:28.388Z,51.40
2023-05-21T01:44:28.381Z,53.01
2023-05-21T01:45:28.365Z,50.11
2023-05-21T01:46:28.442Z,50.43
2023-05-21T01:47:28.368Z,51.24
2023-05-21T01:48:28.359Z,49.47
2023-05-21T01:49:28.349Z,50.11
2023-05-21T01:50:28.357Z,49.79
2023-05-21T01:51:28.336Z,51.56
2023-05-21T01:52:29.329Z,49.47
2023-05-21T01:53:28.317Z,50.27
2023-05-21T01:54:28.305Z,50.11
2023-05-21T01:55:28.314Z,50.76
2023-05-21T01:56:28.301Z,50.11
2023-05-21T01:57:28.277Z,51.24
2023-05-21T01:58:28.289Z,50.43
2023-05-21T01:59:28.273Z,51.40
2023-05-21T02:00:28.284Z,50.11
2023-05-21T02:01:28.285Z,51.88
2023-05-21T02:02:28.308Z,50.27
2023-05-21T02:03:28.351Z,54.30
2023-05-21T02:04:28.234Z,55.75
2023-05-21T02:05:28.229Z,50.27
2023-05-21T02:06:28.217Z,52.21
2023-05-21T02:07:28.215Z,49.63
2023-05-21T02:08:28.225Z,49.31
2023-05-21T02:09:28.199Z,52.37
2023-05-21T02:10:28.244Z,50.76
2023-05-21T02:11:28.199Z,56.88
2023-05-21T02:12:28.190Z,51.56
2023-05-21T02:13:28.191Z,52.53
2023-05-21T02:14:28.206Z,50.92
2023-05-21T02:15:28.167Z,50.27
2023-05-21T02:16:28.176Z,50.92
2023-05-21T02:17:28.171Z,51.24
2023-05-21T02:18:28.166Z,52.21
2023-05-21T02:19:28.261Z,50.27
2023-05-21T02:20:28.134Z,51.72
2023-05-21T02:21:28.138Z,53.66
2023-05-21T02:22:28.133Z,50.43
2023-05-21T02:23:28.150Z,52.21
2023-05-21T02:24:28.114Z,52.53
2023-05-21T02:25:28.104Z,51.56
2023-05-21T02:26:28.105Z,52.05
2023-05-21T02:27:28.096Z,59.46
2023-05-21T02:28:28.083Z,68.80
2023-05-21T02:29:28.103Z,68.96
2023-05-21T02:30:28.098Z,69.13
2023-05-21T02:31:28.056Z,62.04
2023-05-21T02:32:28.088Z,62.52
2023-05-21T02:33:28.075Z,63.33
2023-05-21T02:34:28.108Z,61.71
2023-05-21T02:35:28.054Z,62.68
2023-05-21T02:36:28.033Z,62.36
2023-05-21T02:37:28.024Z,61.87
2023-05-21T02:38:28.024Z,62.36
2023-05-21T02:39:28.009Z,61.23
2023-05-21T02:40:28.023Z,62.04
2023-05-21T02:41:28.009Z,61.23
2023-05-21T02:42:27.992Z,62.36
2023-05-21T02:43:27.991Z,54.95
2023-05-21T02:44:28.002Z,59.62
2023-05-21T02:45:27.979Z,68.16
2023-05-21T02:46:28.014Z,54.79
2023-05-21T02:47:27.987Z,53.82
2023-05-21T02:48:27.971Z,53.01
2023-05-21T02:49:27.987Z,54.62
2023-05-21T02:50:27.936Z,55.11
2023-05-21T02:51:27.956Z,56.07
2023-05-21T02:52:27.921Z,54.79
2023-05-21T02:53:28.924Z,54.79
2023-05-21T02:54:27.934Z,53.66
2023-05-21T02:55:27.914Z,53.82
2023-05-21T02:56:27.913Z,54.30
2023-05-21T02:57:27.903Z,53.50
2023-05-21T02:58:27.894Z,53.01
2023-05-21T02:59:27.878Z,55.59
2023-05-21T03:00:27.873Z,54.62
2023-05-21T03:01:27.932Z,56.07
2023-05-21T03:02:27.909Z,54.46
2023-05-21T03:03:28.077Z,54.46
2023-05-21T03:04:27.850Z,55.11
2023-05-21T03:05:27.866Z,54.79
2023-05-21T03:06:27.839Z,55.59
2023-05-21T03:07:27.835Z,55.91
2023-05-21T03:08:27.847Z,55.27
2023-05-21T03:09:27.825Z,55.91
2023-05-21T03:10:27.806Z,55.59
2023-05-21T03:11:27.806Z,55.59
2023-05-21T03:12:27.812Z,56.88
2023-05-21T03:13:27.823Z,55.27
2023-05-21T03:14:27.784Z,56.40
2023-05-21T03:15:27.821Z,57.85
2023-05-21T03:16:27.856Z,56.07
2023-05-21T03:17:27.776Z,54.30
2023-05-21T03:18:27.795Z,55.27
2023-05-21T03:19:27.824Z,54.46
2023-05-21T03:20:27.767Z,58.17
2023-05-21T03:21:27.754Z,56.07
2023-05-21T03:22:27.729Z,55.91
2023-05-21T03:23:27.726Z,54.46
2023-05-21T03:24:27.729Z,55.59
2023-05-21T03:25:27.712Z,56.40
2023-05-21T03:26:27.721Z,53.17
2023-05-21T03:27:27.710Z,57.52
2023-05-21T03:28:27.712Z,56.40
2023-05-21T03:29:27.689Z,55.91
2023-05-21T03:30:27.696Z,57.52
2023-05-21T03:31:27.738Z,55.27
2023-05-21T03:32:27.706Z,53.98
2023-05-21T03:33:27.678Z,55.27
2023-05-21T03:34:27.661Z,54.62
2023-05-21T03:35:27.704Z,53.82
2023-05-21T03:36:27.649Z,54.46
2023-05-21T03:37:27.651Z,54.95
2023-05-21T03:38:27.654Z,53.50
2023-05-21T03:39:27.639Z,52.85
2023-05-21T03:40:27.655Z,52.53
2023-05-21T03:41:27.621Z,50.76
2023-05-21T03:42:27.628Z,51.40
2023-05-21T03:43:27.613Z,51.72
2023-05-21T03:44:27.599Z,50.60
2023-05-21T03:45:27.628Z,52.69
2023-05-21T03:46:27.612Z,53.01
2023-05-21T03:47:28.622Z,52.53
2023-05-21T03:48:27.595Z,51.56
2023-05-21T03:49:27.571Z,52.53
2023-05-21T03:50:27.572Z,52.21
2023-05-21T03:51:27.599Z,54.62
2023-05-21T03:52:27.602Z,54.95
2023-05-21T03:53:27.546Z,53.33
2023-05-21T03:54:27.550Z,53.33
2023-05-21T03:55:27.574Z,53.50
2023-05-21T03:56:27.558Z,53.17
2023-05-21T03:57:27.523Z,53.33
2023-05-21T03:58:27.513Z,55.27
2023-05-21T03:59:27.522Z,55.27
2023-05-21T04:00:27.501Z,53.50
2023-05-21T04:01:27.534Z,50.60
2023-05-21T04:02:27.692Z,51.56
2023-05-21T04:03:27.646Z,52.85
2023-05-21T04:04:27.519Z,51.08
2023-05-21T04:05:27.472Z,54.79
2023-05-21T04:06:27.496Z,52.37
2023-05-21T04:07:27.467Z,52.37
2023-05-21T04:08:27.444Z,56.40
2023-05-21T04:09:27.451Z,53.01
2023-05-21T04:10:27.457Z,52.85
2023-05-21T04:11:27.432Z,55.27
2023-05-21T04:12:27.448Z,53.98
2023-05-21T04:13:27.412Z,52.69
2023-05-21T04:14:27.415Z,53.50
2023-05-21T04:15:27.406Z,58.97
2023-05-21T04:16:27.428Z,60.91
2023-05-21T04:17:27.491Z,53.98
2023-05-21T04:18:27.390Z,55.27
2023-05-21T04:19:27.417Z,53.82
2023-05-21T04:20:27.387Z,51.56
2023-05-21T04:21:27.375Z,53.50
2023-05-21T04:22:27.368Z,51.88
2023-05-21T04:23:27.380Z,52.69
2023-05-21T04:24:27.342Z,55.27
2023-05-21T04:25:28.335Z,57.20
2023-05-21T04:26:27.332Z,56.88
2023-05-21T04:27:27.341Z,58.97
2023-05-21T04:28:27.335Z,54.30
2023-05-21T04:29:27.302Z,63.33
2023-05-21T04:30:27.317Z,56.88
2023-05-21T04:31:27.332Z,54.62
2023-05-21T04:32:27.336Z,54.30
2023-05-21T04:33:27.310Z,59.78
2023-05-21T04:34:27.287Z,57.20
2023-05-21T04:35:27.287Z,56.07
2023-05-21T04:36:27.255Z,55.43
2023-05-21T04:37:27.266Z,52.69
2023-05-21T04:38:27.242Z,53.50
2023-05-21T04:39:27.235Z,51.56
2023-05-21T04:40:27.240Z,54.14
2023-05-21T04:41:27.225Z,54.14
2023-05-21T04:42:27.227Z,57.36
2023-05-21T04:43:27.239Z,58.49
2023-05-21T04:44:27.220Z,60.91
2023-05-21T04:45:27.186Z,54.30
2023-05-21T04:46:27.235Z,52.21
2023-05-21T04:47:27.234Z,52.05
2023-05-21T04:48:27.296Z,51.72
2023-05-21T04:49:27.168Z,52.53
2023-05-21T04:50:27.193Z,53.17
2023-05-21T04:51:27.154Z,52.69
2023-05-21T04:52:27.145Z,57.20
2023-05-21T04:53:27.132Z,53.33
2023-05-21T04:54:27.135Z,54.30
2023-05-21T04:55:27.147Z,55.75
2023-05-21T04:56:27.140Z,56.07
2023-05-21T04:57:27.108Z,60.10
2023-05-21T04:58:27.107Z,55.75
2023-05-21T04:59:27.098Z,59.30
2023-05-21T05:00:27.092Z,59.62
2023-05-21T05:01:27.325Z,60.91
2023-05-21T05:02:27.114Z,58.17
2023-05-21T05:03:27.148Z,59.62
2023-05-21T05:04:27.066Z,55.27
2023-05-21T05:05:27.059Z,52.53
2023-05-21T05:06:27.073Z,56.24
2023-05-21T05:07:27.035Z,51.40
2023-05-21T05:08:27.032Z,52.37
2023-05-21T05:09:27.034Z,57.85
2023-05-21T05:10:27.011Z,57.04
2023-05-21T05:11:27.029Z,54.14
2023-05-21T05:12:27.034Z,52.37
2023-05-21T05:13:26.999Z,53.98
2023-05-21T05:14:26.984Z,50.60
2023-05-21T05:15:26.983Z,52.69
2023-05-21T05:16:27.036Z,52.37
2023-05-21T05:17:27.019Z,53.33
2023-05-21T05:18:26.957Z,54.95
2023-05-21T05:19:27.077Z,57.20
2023-05-21T05:20:26.948Z,53.01
2023-05-21T05:21:26.953Z,54.30
2023-05-21T05:22:26.922Z,52.53
2023-05-21T05:23:26.937Z,54.14
2023-05-21T05:24:26.919Z,55.59
2023-05-21T05:25:26.913Z,56.88
2023-05-21T05:26:26.920Z,54.62
2023-05-21T05:27:26.890Z,54.30
2023-05-21T05:28:26.906Z,55.75
2023-05-21T05:29:26.881Z,55.27
2023-05-21T05:30:26.894Z,53.82
2023-05-21T05:31:26.985Z,56.72
2023-05-21T05:32:26.884Z,56.07
2023-05-21T05:33:26.836Z,56.72
2023-05-21T05:34:26.847Z,54.79
2023-05-21T05:35:26.843Z,56.56
2023-05-21T05:36:26.843Z,56.07
2023-05-21T05:37:26.823Z,54.62
2023-05-21T05:38:26.812Z,54.30
2023-05-21T05:39:26.805Z,53.98
2023-05-21T05:40:26.817Z,53.98
2023-05-21T05:41:26.807Z,55.59
2023-05-21T05:42:26.791Z,53.66
2023-05-21T05:43:26.771Z,54.79
2023-05-21T05:44:26.768Z,50.76
2023-05-21T05:45:26.798Z,53.50
2023-05-21T05:46:26.773Z,54.46
2023-05-21T05:47:26.790Z,56.88
2023-05-21T05:48:26.744Z,56.40
2023-05-21T05:49:26.726Z,55.27
2023-05-21T05:50:26.746Z,58.17
2023-05-21T05:51:26.714Z,64.78
2023-05-21T05:52:26.729Z,63.16
2023-05-21T05:53:26.696Z,54.14
2023-05-21T05:54:26.700Z,52.53
2023-05-21T05:55:26.738Z,54.62
2023-05-21T05:56:26.682Z,53.01
2023-05-21T05:57:26.693Z,52.53
2023-05-21T05:58:26.672Z,53.82
2023-05-21T05:59:26.669Z,53.66
2023-05-21T06:00:26.646Z,53.17
2023-05-21T06:01:26.668Z,54.62
2023-05-21T06:02:26.688Z,53.33
2023-05-21T06:03:26.753Z,57.69
2023-05-21T06:04:26.633Z,54.14
2023-05-21T06:05:26.643Z,53.01
2023-05-21T06:06:26.619Z,51.56
2023-05-21T06:07:26.605Z,52.05
2023-05-21T06:08:26.611Z,54.95
2023-05-21T06:09:26.612Z,51.88
2023-05-21T06:10:26.584Z,56.88
2023-05-21T06:11:26.605Z,54.30
2023-05-21T06:12:26.568Z,54.30
2023-05-21T06:13:26.572Z,56.40
2023-05-21T06:14:26.565Z,54.14
2023-05-21T06:15:26.576Z,54.62
2023-05-21T06:16:26.666Z,56.56
2023-05-21T06:17:26.588Z,55.11
2023-05-21T06:18:26.545Z,52.21
2023-05-21T06:19:26.609Z,56.40
2023-05-21T06:20:26.522Z,54.95
2023-05-21T06:21:26.538Z,53.01
2023-05-21T06:22:26.503Z,54.46
2023-05-21T06:23:26.499Z,53.01
2023-05-21T06:24:26.494Z,63.00
2023-05-21T06:25:26.506Z,51.72
2023-05-21T06:26:26.491Z,56.40
2023-05-21T06:27:26.474Z,55.43
2023-05-21T06:28:26.462Z,54.62
2023-05-21T06:29:26.483Z,55.91
2023-05-21T06:30:26.476Z,54.30
2023-05-21T06:31:26.472Z,53.17
2023-05-21T06:32:26.491Z,58.97
2023-05-21T06:33:26.550Z,49.95
2023-05-21T06:34:26.434Z,52.37
2023-05-21T06:35:26.425Z,51.56
2023-05-21T06:36:26.437Z,54.62
2023-05-21T06:37:26.815Z,54.30
2023-05-21T06:38:27.401Z,52.53
2023-05-21T06:39:26.395Z,52.69
2023-05-21T06:40:26.393Z,51.40
2023-05-21T06:41:26.384Z,52.37
2023-05-21T06:42:26.381Z,51.88
2023-05-21T06:43:26.381Z,51.24
2023-05-21T06:44:26.361Z,50.92
2023-05-21T06:45:26.381Z,52.37
2023-05-21T06:46:26.417Z,55.27
2023-05-21T06:47:26.367Z,53.66
2023-05-21T06:48:26.330Z,55.11
2023-05-21T06:49:26.324Z,52.37
2023-05-21T06:50:26.327Z,54.14
2023-05-21T06:51:27.345Z,52.05
2023-05-21T06:52:26.311Z,55.27
2023-05-21T06:53:26.335Z,58.01
2023-05-21T06:54:27.116Z,60.75
2023-05-21T06:55:27.288Z,53.98
2023-05-21T06:56:26.316Z,50.92
2023-05-21T06:57:26.287Z,53.82
2023-05-21T06:58:26.269Z,50.92
2023-05-21T06:59:26.260Z,52.85
2023-05-21T07:00:26.259Z,52.53
2023-05-21T07:01:26.379Z,52.37
2023-05-21T07:02:26.374Z,52.53
2023-05-21T07:03:26.307Z,54.30
2023-05-21T07:04:26.226Z,56.07
2023-05-21T07:05:26.235Z,56.88
2023-05-21T07:06:26.308Z,51.88
2023-05-21T07:07:26.223Z,54.30
2023-05-21T07:08:26.209Z,52.85
2023-05-21T07:09:26.221Z,52.85
2023-05-21T07:10:26.206Z,50.43
2023-05-21T07:11:26.248Z,51.56
2023-05-21T07:12:26.175Z,54.14
2023-05-21T07:13:26.178Z,54.30
2023-05-21T07:14:26.456Z,58.17
2023-05-21T07:15:26.162Z,55.11
2023-05-21T07:16:26.179Z,55.75
2023-05-21T07:17:26.161Z,57.20
2023-05-21T07:18:26.134Z,54.30
2023-05-21T07:19:26.185Z,54.79
2023-05-21T07:20:26.159Z,53.50
2023-05-21T07:21:26.115Z,56.72
2023-05-21T07:22:28.066Z,56.24
2023-05-21T07:23:27.116Z,55.91
2023-05-21T07:24:26.080Z,52.69
2023-05-21T07:25:26.118Z,58.81
2023-05-21T07:26:26.085Z,53.50
2023-05-21T07:27:26.430Z,56.88
2023-05-21T07:28:26.062Z,51.72
2023-05-21T07:29:26.058Z,53.98
2023-05-21T07:30:26.056Z,55.91
2023-05-21T07:31:26.110Z,53.33
2023-05-21T07:32:26.042Z,52.37
2023-05-21T07:33:26.031Z,52.21
2023-05-21T07:34:26.049Z,55.75
2023-05-21T07:35:26.021Z,55.27
2023-05-21T07:36:26.010Z,55.59
2023-05-21T07:37:26.049Z,53.50
2023-05-21T07:38:26.007Z,56.24
2023-05-21T07:39:25.986Z,52.85
2023-05-21T07:40:25.982Z,54.62
2023-05-21T07:41:25.999Z,53.01
2023-05-21T07:42:25.968Z,53.82
2023-05-21T07:43:25.960Z,54.30
2023-05-21T07:44:25.963Z,54.30
2023-05-21T07:45:25.955Z,55.27
2023-05-21T07:46:25.987Z,54.46
2023-05-21T07:47:26.034Z,53.82
2023-05-21T07:48:25.932Z,55.27
2023-05-21T07:49:25.928Z,58.01
2023-05-21T07:50:25.917Z,56.40
2023-05-21T07:51:25.962Z,55.75
2023-05-21T07:52:25.927Z,57.04
2023-05-21T07:53:25.893Z,57.04
2023-05-21T07:54:25.897Z,53.66
2023-05-21T07:55:25.916Z,54.30
2023-05-21T07:56:25.910Z,52.21
2023-05-21T07:57:25.879Z,52.69
2023-05-21T07:58:25.868Z,52.85
2023-05-21T07:59:25.873Z,53.82
2023-05-21T08:00:25.857Z,53.17
2023-05-21T08:01:25.894Z,53.66
2023-05-21T08:02:25.966Z,53.98
2023-05-21T08:03:25.923Z,56.40
2023-05-21T08:04:26.017Z,50.76
2023-05-21T08:05:25.852Z,54.62
2023-05-21T08:06:25.827Z,52.21
2023-05-21T08:07:25.822Z,58.81
2023-05-21T08:08:25.815Z,53.66
2023-05-21T08:09:25.824Z,55.27
2023-05-21T08:10:25.803Z,54.79
2023-05-21T08:11:26.433Z,55.27
2023-05-21T08:12:25.800Z,58.49
2023-05-21T08:13:26.010Z,54.30
2023-05-21T08:14:25.779Z,52.53
2023-05-21T08:15:25.777Z,53.98
2023-05-21T08:16:25.843Z,57.52
2023-05-21T08:17:25.789Z,57.85
2023-05-21T08:18:25.868Z,56.88
2023-05-21T08:19:25.804Z,60.59
2023-05-21T08:20:25.732Z,56.07
2023-05-21T08:21:25.726Z,56.40
2023-05-21T08:22:25.728Z,57.20
2023-05-21T08:23:25.717Z,55.11
2023-05-21T08:24:25.707Z,56.40
2023-05-21T08:25:25.697Z,56.07
2023-05-21T08:26:25.793Z,56.24
2023-05-21T08:27:25.855Z,54.95
2023-05-21T08:28:25.684Z,57.04
2023-05-21T08:29:25.674Z,59.94
2023-05-21T08:30:25.691Z,57.04
2023-05-21T08:31:25.688Z,64.13
2023-05-21T08:32:25.663Z,57.85
2023-05-21T08:33:25.671Z,56.72
2023-05-21T08:34:25.639Z,56.40
2023-05-21T08:35:25.634Z,56.88
2023-05-21T08:36:25.625Z,58.01
2023-05-21T08:37:25.618Z,58.49
2023-05-21T08:38:26.989Z,59.78
2023-05-21T08:39:25.614Z,53.66
2023-05-21T08:40:25.588Z,55.59
2023-05-21T08:41:25.589Z,56.40
2023-05-21T08:42:36.335Z,55.11
2023-05-21T08:43:27.599Z,54.79
2023-05-21T08:44:25.580Z,55.75
2023-05-21T08:45:25.575Z,56.40
2023-05-21T08:46:25.635Z,51.56
2023-05-21T08:47:25.578Z,53.66
2023-05-21T08:48:25.566Z,53.82
2023-05-21T08:49:27.163Z,54.95
2023-05-21T08:50:26.547Z,52.37
2023-05-21T08:51:25.545Z,56.88
2023-05-21T08:52:25.524Z,53.50
2023-05-21T08:53:28.729Z,52.69
2023-05-21T08:54:26.510Z,63.16
2023-05-21T08:55:25.515Z,53.33
2023-05-21T08:56:25.503Z,53.98
2023-05-21T08:57:25.510Z,54.46
2023-05-21T08:58:25.501Z,63.97
2023-05-21T08:59:25.489Z,63.00
2023-05-21T09:00:25.494Z,62.04
2023-05-21T09:01:26.651Z,58.49
2023-05-21T09:02:26.536Z,59.30
2023-05-21T09:03:25.518Z,57.36
2023-05-21T09:04:25.498Z,56.56
2023-05-21T09:05:25.449Z,54.46
2023-05-21T09:06:25.426Z,57.04
2023-05-21T09:07:25.426Z,55.75
2023-05-21T09:08:25.425Z,57.69
2023-05-21T09:09:25.418Z,60.59
2023-05-21T09:10:25.412Z,55.43
2023-05-21T09:11:25.405Z,53.33
2023-05-21T09:12:25.412Z,55.75
2023-05-21T09:13:25.400Z,54.79
2023-05-21T09:14:25.509Z,54.30
2023-05-21T09:15:25.424Z,53.66
2023-05-21T09:16:25.447Z,54.62
2023-05-21T09:17:25.440Z,57.52
2023-05-21T09:18:25.366Z,54.46
2023-05-21T09:19:25.410Z,51.56
2023-05-21T09:20:25.378Z,53.17
2023-05-21T09:21:25.360Z,53.17
2023-05-21T09:22:25.329Z,53.17
2023-05-21T09:23:25.340Z,54.79
2023-05-21T09:24:25.342Z,65.58
2023-05-21T09:25:25.352Z,53.17
2023-05-21T09:26:25.329Z,54.14
2023-05-21T09:27:25.301Z,52.53
2023-05-21T09:28:25.300Z,55.27
2023-05-21T09:29:25.292Z,53.66
2023-05-21T09:30:35.714Z,53.98
2023-05-21T09:31:27.418Z,55.59
2023-05-21T09:32:25.312Z,59.46
2023-05-21T09:33:25.259Z,63.16
2023-05-21T09:34:25.290Z,65.42
2023-05-21T09:35:25.256Z,64.61
2023-05-21T09:36:25.253Z,62.84
2023-05-21T09:37:27.639Z,65.10
2023-05-21T09:38:26.259Z,65.26
2023-05-21T09:39:25.240Z,65.26
2023-05-21T09:40:25.246Z,66.39
2023-05-21T09:41:25.241Z,66.71
2023-05-21T09:42:25.210Z,66.87
2023-05-21T09:43:25.210Z,66.87
2023-05-21T09:44:25.209Z,68.32
2023-05-21T09:45:25.485Z,67.51
2023-05-21T09:46:25.204Z,66.39
2023-05-21T09:47:25.206Z,67.51
2023-05-21T09:48:25.189Z,66.55
2023-05-21T09:49:25.237Z,65.74
2023-05-21T09:50:25.172Z,66.87
2023-05-21T09:51:25.164Z,66.87
2023-05-21T09:52:25.150Z,67.51
2023-05-21T09:53:25.174Z,66.87
2023-05-21T09:54:25.170Z,52.21
2023-05-21T09:55:25.141Z,53.50
2023-05-21T09:56:25.125Z,53.50
2023-05-21T09:57:25.959Z,51.40
2023-05-21T09:58:25.123Z,53.82
2023-05-21T09:59:25.147Z,54.95
2023-05-21T10:00:25.124Z,50.92
2023-05-21T10:01:25.222Z,51.24
2023-05-21T10:02:25.118Z,52.37
2023-05-21T10:03:25.098Z,55.27
2023-05-21T10:05:25.088Z,58.49
2023-05-21T10:06:25.071Z,57.85
2023-05-21T10:07:25.068Z,64.61
2023-05-21T10:08:25.062Z,63.97
2023-05-21T10:09:25.084Z,64.13
2023-05-21T10:10:25.088Z,65.42
2023-05-21T10:11:25.036Z,67.51
2023-05-21T10:12:25.031Z,67.19
2023-05-21T10:13:25.038Z,66.55
2023-05-21T10:14:25.043Z,65.90
2023-05-21T10:15:25.024Z,53.17
2023-05-21T10:16:25.042Z,49.95
2023-05-21T10:17:25.040Z,53.66
2023-05-21T10:18:24.989Z,52.85
2023-05-21T10:19:25.762Z,54.46
2023-05-21T10:20:24.999Z,52.85
2023-05-21T10:21:24.984Z,50.27
2023-05-21T10:22:24.968Z,52.05
2023-05-21T10:23:24.956Z,50.27
2023-05-21T10:24:24.961Z,52.85
2023-05-21T10:25:24.979Z,53.17
2023-05-21T10:26:24.945Z,50.92
2023-05-21T10:27:24.944Z,51.08
2023-05-21T10:28:24.924Z,57.36
2023-05-21T10:29:24.925Z,70.74
2023-05-21T10:30:24.919Z,49.15
2023-05-21T10:31:25.272Z,57.36
2023-05-21T10:32:25.021Z,56.07
2023-05-21T10:33:24.958Z,51.24
2023-05-21T10:34:24.891Z,52.85
2023-05-21T10:35:24.900Z,52.69
2023-05-21T10:36:24.885Z,54.95
2023-05-21T10:37:24.870Z,62.84
2023-05-21T10:38:24.903Z,69.13
2023-05-21T10:39:24.863Z,50.60
2023-05-21T10:40:24.852Z,57.04
2023-05-21T10:41:24.885Z,53.17
2023-05-21T10:42:24.862Z,51.08
2023-05-21T10:43:24.847Z,51.40
2023-05-21T10:44:24.850Z,54.30
2023-05-21T10:45:24.843Z,53.66
2023-05-21T10:46:24.853Z,51.72
2023-05-21T10:47:24.824Z,53.98
2023-05-21T10:48:24.818Z,53.17
2023-05-21T10:49:24.815Z,53.17
2023-05-21T10:50:24.796Z,53.50
2023-05-21T10:51:24.799Z,56.56
2023-05-21T10:52:24.802Z,49.63
2023-05-21T10:53:24.797Z,51.24
2023-05-21T10:54:24.794Z,50.92
2023-05-21T10:55:24.768Z,50.60
2023-05-21T10:56:24.771Z,51.88
2023-05-21T10:57:24.759Z,51.72
2023-05-21T10:58:24.753Z,50.60
2023-05-21T10:59:24.770Z,52.05
2023-05-21T11:00:24.737Z,50.11
2023-05-21T11:01:24.827Z,51.72
2023-05-21T11:02:24.766Z,48.82
2023-05-21T11:03:24.939Z,54.79
2023-05-21T11:04:24.725Z,55.91
2023-05-21T11:05:24.695Z,53.66
2023-05-21T11:06:24.716Z,51.88
2023-05-21T11:07:24.738Z,53.33
2023-05-21T11:08:24.683Z,51.24
2023-05-21T11:09:24.683Z,56.24
2023-05-21T11:10:24.693Z,50.92
2023-05-21T11:11:24.667Z,52.37
2023-05-21T11:12:24.663Z,51.40
2023-05-21T11:13:24.680Z,51.72
2023-05-21T11:14:24.656Z,53.17
2023-05-21T11:15:24.730Z,52.05
2023-05-21T11:16:24.689Z,50.43
2023-05-21T11:17:24.650Z,52.21
2023-05-21T11:18:24.616Z,49.15
2023-05-21T11:19:24.643Z,49.79
2023-05-21T11:20:24.623Z,51.56
2023-05-21T11:21:24.600Z,50.76
2023-05-21T11:22:24.615Z,47.70
2023-05-21T11:23:24.591Z,52.05
2023-05-21T11:24:24.579Z,51.72
2023-05-21T11:25:24.584Z,49.95
2023-05-21T11:26:24.571Z,50.43
2023-05-21T11:27:24.559Z,49.63
2023-05-21T11:28:24.554Z,51.40
2023-05-21T11:29:24.558Z,49.79
2023-05-21T11:30:24.555Z,49.47
2023-05-21T11:31:24.577Z,50.27
2023-05-21T11:32:24.551Z,52.21
2023-05-21T11:33:24.532Z,49.47
2023-05-21T11:34:24.531Z,51.56
2023-05-21T11:35:24.518Z,51.72
2023-05-21T11:36:24.539Z,51.72
2023-05-21T11:37:24.515Z,54.46
2023-05-21T11:38:24.495Z,54.46
2023-05-21T11:39:24.492Z,56.40
2023-05-21T11:40:24.489Z,47.37
2023-05-21T11:41:24.483Z,48.34
2023-05-21T11:42:24.476Z,52.69
2023-05-21T11:43:24.471Z,57.04
2023-05-21T11:44:24.463Z,54.62
2023-05-21T11:45:24.481Z,50.92
2023-05-21T11:46:24.497Z,52.69
2023-05-21T11:47:24.511Z,54.79
2023-05-21T11:48:26.886Z,54.30
2023-05-21T11:49:24.431Z,49.47
2023-05-21T11:50:24.422Z,49.47
2023-05-21T11:51:24.423Z,52.37
2023-05-21T11:52:24.420Z,56.24
2023-05-21T11:53:24.458Z,48.82
2023-05-21T11:54:24.506Z,50.60
2023-05-21T11:55:24.403Z,47.53
2023-05-21T11:56:24.466Z,48.02
2023-05-21T11:57:24.398Z,50.43
2023-05-21T11:58:24.393Z,52.21
2023-05-21T11:59:24.403Z,61.23
2023-05-21T12:00:24.385Z,49.63
2023-05-21T12:01:24.356Z,49.63
2023-05-21T12:02:25.359Z,50.43
2023-05-21T12:03:24.444Z,53.50
2023-05-21T12:04:24.377Z,49.15
2023-05-21T12:05:24.366Z,51.40
2023-05-21T12:06:24.385Z,49.79
2023-05-21T12:07:24.333Z,53.66
2023-05-21T12:08:24.312Z,47.70
2023-05-21T12:09:24.323Z,48.18
2023-05-21T12:10:24.539Z,50.43
2023-05-21T12:11:24.291Z,53.82
2023-05-21T12:12:24.305Z,50.27
2023-05-21T12:13:24.294Z,51.08
2023-05-21T12:14:24.342Z,47.53
2023-05-21T12:15:24.362Z,59.94
2023-05-21T12:16:24.319Z,52.05
2023-05-21T12:17:24.310Z,47.05
2023-05-21T12:18:24.259Z,48.18
2023-05-21T12:19:24.322Z,56.40
2023-05-21T12:20:24.293Z,51.40
2023-05-21T12:21:24.252Z,51.88
2023-05-21T12:22:24.247Z,54.95
2023-05-21T12:23:24.237Z,53.17
2023-05-21T12:24:24.244Z,58.17
2023-05-21T12:25:24.227Z,49.79
2023-05-21T12:26:24.236Z,47.37
2023-05-21T12:27:24.216Z,51.40
2023-05-21T12:28:24.209Z,48.98
2023-05-21T12:29:24.209Z,50.27
2023-05-21T12:30:24.208Z,50.11
2023-05-21T12:31:24.215Z,50.27
2023-05-21T12:32:24.203Z,49.63
2023-05-21T12:33:25.263Z,47.37
2023-05-21T12:34:25.169Z,46.08
2023-05-21T12:35:24.685Z,49.79
2023-05-21T12:36:24.156Z,47.53
2023-05-21T12:37:24.162Z,48.34
2023-05-21T12:38:24.392Z,48.18
2023-05-21T12:39:24.153Z,47.70
2023-05-21T12:40:24.147Z,51.72
2023-05-21T12:41:24.131Z,51.88
2023-05-21T12:42:24.139Z,53.01
2023-05-21T12:43:24.147Z,52.85
2023-05-21T12:44:24.116Z,52.69
2023-05-21T12:45:24.123Z,48.66
2023-05-21T12:46:24.121Z,55.27
2023-05-21T12:47:24.114Z,48.98
2023-05-21T12:48:24.127Z,57.04
2023-05-21T12:49:24.090Z,53.66
2023-05-21T12:50:24.104Z,53.50
2023-05-21T12:51:24.083Z,48.98
2023-05-21T12:52:24.082Z,47.37
2023-05-21T12:53:24.098Z,54.30
2023-05-21T12:54:24.073Z,53.98